Main page
METAR-TAF:

METAR-TAF

Airports :

Hill City Municipal Airport

Hill City, Kansas, United States

latitude: 39-22-29N, longitude: 099-49-47W, elevation: 2224 ft

Current weather observation

The report was made 32 minutes ago, at 12:53 UTC
Calm wind
Temperature 32°F
Humidity 74%
Pressure 30.03 in. Hg
Visibility: 10 miles
Clear sky

METAR: KHLC 291253Z AUTO 00000KT 10SM CLR 00/M04 A3003 RMK AO2 SLP181 T00001039

Time: 07:25 (13:25 UTC)


TAF: missing

Weather observations and forecasts of more than 4000 airports (METAR and TAF reports).

The available stations are represented by yellow and red dots on the map.

Hover mouse over dot to see the name of the station.

Then click to see weather observations and forecasts.

To change the map : click on the green buttons with a black cross to zoom in, on the green button with a dash to zoom out, or on the green arrows for adjacent maps.


METAR-TAF: